Time;durP1;ratioP1;P1;durP2;ratioP2;P2;SDS_P1;SDS_P2;PMS_P1;PMS_P2;Temp;Humidity;BMP_temperature;BMP_pressure;BME280_temperature;BME280_humidity;BME280_pressure;Samples;Min_cycle;Max_cycle;Signal;HPM_P1;HPM_P2
2022/11/03 00:00:42;;;;;;;11.20;4.50;;;;;;;5.47;100.00;100222.14;100685;1333;23392;-33
2022/11/03 00:03:07;;;;;;;8.00;3.30;;;;;;;5.48;100.00;100223.29;100718;1342;24471;-32
2022/11/03 00:08:02;;;;;;;;;;;;;;;5.52;100.00;100221.14;100663;1341;22894;-32
2022/11/03 00:10:29;;;;;;;11.00;3.20;;;;;;;5.53;100.00;100221.55;100687;1336;23215;-31
2022/11/03 00:12:54;;;;;;;27.70;4.10;;;;;;;5.52;100.00;100222.96;100458;1344;22753;-35
2022/11/03 00:15:20;;;;;;;20.20;4.40;;;;;;;5.51;100.00;100221.64;100674;1331;24312;-35
2022/11/03 00:17:46;;;;;;;15.10;2.90;;;;;;;5.48;100.00;100219.89;100693;1331;22493;-32
2022/11/03 00:20:11;;;;;;;11.90;4.90;;;;;;;5.49;100.00;100220.70;100643;1336;23233;-35
2022/11/03 00:22:37;;;;;;;7.20;3.30;;;;;;;5.48;100.00;100223.32;100760;1341;23230;-37
2022/11/03 00:25:03;;;;;;;9.20;4.10;;;;;;;5.40;100.00;100222.60;100554;1340;22715;-32
2022/11/03 00:27:28;;;;;;;10.80;5.80;;;;;;;5.25;100.00;100223.66;100560;1339;22756;-33
2022/11/03 00:29:54;;;;;;;8.80;4.40;;;;;;;5.04;100.00;100223.85;100655;1344;23203;-32
2022/11/03 00:32:19;;;;;;;10.20;5.10;;;;;;;4.90;100.00;100228.33;100724;1332;22496;-35
2022/11/03 00:34:45;;;;;;;11.40;6.00;;;;;;;4.81;100.00;100233.02;100672;1336;22774;-36
2022/11/03 00:37:11;;;;;;;4.40;3.10;;;;;;;4.70;100.00;100238.88;100707;1344;23106;-36
2022/11/03 00:39:36;;;;;;;10.50;5.30;;;;;;;4.64;100.00;100243.45;100583;1339;23103;-36
2022/11/03 00:42:02;;;;;;;22.30;6.30;;;;;;;4.63;100.00;100248.10;100553;1343;24386;-36
2022/11/03 00:44:28;;;;;;;7.40;3.90;;;;;;;4.63;100.00;100248.69;100708;1337;24299;-32
2022/11/03 00:46:53;;;;;;;14.50;5.40;;;;;;;4.57;100.00;100243.33;100709;1344;22907;-33
2022/11/03 00:49:19;;;;;;;10.90;5.20;;;;;;;4.55;100.00;100242.15;100692;1342;23131;-32
2022/11/03 00:51:44;;;;;;;12.60;4.50;;;;;;;4.50;100.00;100244.88;100657;1340;22886;-32
2022/11/03 00:54:10;;;;;;;12.80;4.20;;;;;;;4.43;100.00;100246.70;100762;1328;24880;-35
2022/11/03 00:56:37;;;;;;;7.80;3.90;;;;;;;4.39;100.00;100245.54;100654;1324;25897;-37
2022/11/03 00:59:03;;;;;;;10.70;4.90;;;;;;;4.40;100.00;100251.59;100513;1342;23237;-32
2022/11/03 01:01:32;;;;;;;8.50;4.30;;;;;;;4.41;100.00;100254.16;100711;1334;22762;-35
2022/11/03 01:08:55;;;;;;;5.40;4.00;;;;;;;4.25;100.00;100252.77;100734;1331;24390;-31
2022/11/03 01:13:51;;;;;;;4.80;2.90;;;;;;;4.09;100.00;100255.27;100670;1340;23004;-34
2022/11/03 01:16:17;;;;;;;13.60;5.80;;;;;;;4.10;100.00;100258.31;100699;1329;22870;-31
2022/11/03 01:18:42;;;;;;;11.50;5.30;;;;;;;4.12;100.00;100256.73;100649;1343;24471;-34
2022/11/03 01:21:08;;;;;;;27.30;6.10;;;;;;;4.03;100.00;100256.08;100685;1336;23244;-31
2022/11/03 01:23:34;;;;;;;17.10;5.70;;;;;;;3.90;100.00;100252.60;100707;1340;22929;-31
2022/11/03 01:26:04;;;;;;;9.50;4.80;;;;;;;3.78;100.00;100249.07;100798;1336;24383;-32
2022/11/03 01:28:30;;;;;;;11.60;5.90;;;;;;;3.69;100.00;100250.18;100721;1344;22762;-31
2022/11/03 01:30:56;;;;;;;4.70;2.70;;;;;;;3.64;100.00;100246.89;100666;1337;24366;-32
2022/11/03 01:33:22;;;;;;;8.30;5.00;;;;;;;3.54;100.00;100242.59;100703;1340;22872;-31
2022/11/03 01:35:52;;;;;;;8.30;4.50;;;;;;;3.45;100.00;100242.50;100632;1332;22513;-41
2022/11/03 01:38:18;;;;;;;13.20;5.40;;;;;;;3.38;100.00;100241.15;100738;1344;24362;-33
2022/11/03 01:40:43;;;;;;;17.00;6.40;;;;;;;3.31;100.00;100238.17;100693;1344;24338;-30
2022/11/03 01:43:16;;;;;;;8.20;5.10;;;;;;;3.24;100.00;100237.15;100722;1337;24911;-34
2022/11/03 01:45:41;;;;;;;15.30;5.30;;;;;;;3.17;100.00;100234.75;100687;1344;24453;-32
2022/11/03 01:48:08;;;;;;;13.60;5.20;;;;;;;3.15;100.00;100235.98;100726;1336;22510;-32
2022/11/03 01:50:33;;;;;;;10.80;5.20;;;;;;;3.15;100.00;100239.00;100588;1344;24387;-40
2022/11/03 01:53:00;;;;;;;18.00;7.20;;;;;;;3.14;100.00;100250.09;100646;1334;24485;-33
2022/11/03 01:55:31;;;;;;;10.00;6.10;;;;;;;3.09;100.00;100257.06;100793;1341;22498;-31
2022/11/03 01:58:01;;;;;;;18.00;6.60;;;;;;;3.01;100.00;100255.54;100714;1340;24586;-37
2022/11/03 02:00:27;;;;;;;10.80;5.90;;;;;;;2.93;100.00;100261.02;100554;1336;22765;-36
2022/11/03 02:02:53;;;;;;;12.70;6.10;;;;;;;2.88;100.00;100258.79;100691;1336;22771;-36
2022/11/03 02:05:19;;;;;;;7.90;4.60;;;;;;;2.82;100.00;100253.20;100715;1336;24879;-36
2022/11/03 02:07:49;;;;;;;17.60;6.00;;;;;;;2.76;100.00;100253.73;100697;1344;22895;-35
2022/11/03 02:10:14;;;;;;;18.90;7.10;;;;;;;2.72;100.00;100251.75;100468;1343;22764;-33
2022/11/03 02:12:40;;;;;;;12.60;3.70;;;;;;;2.68;100.00;100248.88;100601;1331;22494;-32
2022/11/03 02:15:08;;;;;;;9.00;4.20;;;;;;;2.69;100.00;100249.83;100736;1340;24531;-36
2022/11/03 02:17:33;;;;;;;16.30;5.80;;;;;;;2.67;100.00;100241.35;100720;1344;24312;-34
2022/11/03 02:20:03;;;;;;;18.10;7.70;;;;;;;2.64;100.00;100237.04;100688;1342;23241;-36
2022/11/03 02:22:30;;;;;;;8.60;4.70;;;;;;;2.61;100.00;100235.13;100764;1344;24600;-33
2022/11/03 02:24:56;;;;;;;13.60;6.70;;;;;;;2.60;100.00;100234.13;100669;1340;22736;-35
2022/11/03 02:27:21;;;;;;;12.10;7.40;;;;;;;2.59;100.00;100239.75;100735;1332;24553;-32
2022/11/03 02:29:47;;;;;;;10.60;6.60;;;;;;;2.54;100.00;100239.80;100685;1337;24337;-31
2022/11/03 02:32:17;;;;;;;19.70;10.10;;;;;;;2.49;100.00;100239.84;100741;1337;23066;-37
2022/11/03 02:34:46;;;;;;;12.30;5.50;;;;;;;2.43;100.00;100244.91;100767;1341;22770;-32
2022/11/03 02:37:16;;;;;;;11.10;7.30;;;;;;;2.39;100.00;100242.59;100696;1341;22887;-31
2022/11/03 02:39:45;;;;;;;8.90;6.40;;;;;;;2.38;100.00;100244.47;100788;1340;22776;-31
2022/11/03 02:42:11;;;;;;;14.10;4.60;;;;;;;2.41;100.00;100248.77;100570;1339;24521;-31
2022/11/03 02:44:37;;;;;;;15.00;8.20;;;;;;;2.42;100.00;100256.33;100698;1344;22864;-32
2022/11/03 02:47:05;;;;;;;10.70;6.60;;;;;;;2.43;100.00;100258.87;100661;1345;23283;-33
2022/11/03 02:49:30;;;;;;;21.20;9.50;;;;;;;2.43;100.00;100256.95;100728;1344;23090;-35
2022/11/03 02:52:00;;;;;;;10.90;5.90;;;;;;;2.40;100.00;100254.40;100739;1341;24343;-35
2022/11/03 02:54:28;;;;;;;20.40;8.60;;;;;;;2.40;100.00;100255.08;100701;1331;23239;-35
2022/11/03 02:56:58;;;;;;;10.90;7.30;;;;;;;2.39;100.00;100254.24;100661;1340;22888;-35
2022/11/03 02:59:27;;;;;;;12.60;8.10;;;;;;;2.38;100.00;100256.25;100632;1337;23215;-35
2022/11/03 03:01:56;;;;;;;16.10;6.60;;;;;;;2.36;100.00;100256.41;100694;1336;22496;-35
2022/11/03 03:04:27;;;;;;;33.30;12.40;;;;;;;2.33;100.00;100253.32;100709;1336;23243;-32
2022/11/03 03:06:56;;;;;;;20.00;11.50;;;;;;;2.30;100.00;100259.17;100823;1331;23233;-34
2022/11/03 03:09:24;;;;;;;20.10;10.20;;;;;;;2.27;100.00;100256.45;100728;1341;23031;-33
2022/11/03 03:11:50;;;;;;;18.10;9.90;;;;;;;2.27;100.00;100256.25;100772;1341;22755;-33
2022/11/03 03:14:19;;;;;;;20.40;9.60;;;;;;;2.26;100.00;100254.05;100710;1341;23232;-32
2022/11/03 03:16:48;;;;;;;23.60;11.70;;;;;;;2.25;100.00;100256.61;100711;1341;22898;-32
2022/11/03 03:19:21;;;;;;;13.80;9.60;;;;;;;2.20;100.00;100250.08;100725;1341;24373;-36
2022/11/03 03:21:47;;;;;;;17.40;10.30;;;;;;;2.11;100.00;100243.39;100640;1339;22935;-33
2022/11/03 03:24:20;;;;;;;22.20;9.80;;;;;;;2.00;100.00;100233.71;100672;1341;24392;-35
2022/11/03 03:26:48;;;;;;;18.20;10.20;;;;;;;1.91;100.00;100230.69;100640;1329;24476;-32
2022/11/03 03:29:16;;;;;;;20.90;9.90;;;;;;;1.82;100.00;100225.92;100819;1341;23003;-33
2022/11/03 03:31:43;;;;;;;19.30;9.70;;;;;;;1.74;100.00;100224.20;100712;1341;22977;-36
2022/11/03 03:34:09;;;;;;;19.20;10.40;;;;;;;1.69;100.00;100226.92;100737;1341;22492;-34
2022/11/03 03:36:35;;;;;;;19.90;10.90;;;;;;;1.64;100.00;100228.91;100728;1334;22517;-36
2022/11/03 03:39:02;;;;;;;17.20;10.00;;;;;;;1.57;100.00;100225.23;100486;1341;370705;-32
2022/11/03 03:41:27;;;;;;;19.10;10.00;;;;;;;1.53;100.00;100225.35;100738;1338;23226;-35
2022/11/03 03:43:54;;;;;;;10.50;7.90;;;;;;;1.52;100.00;100224.91;100647;1340;24348;-32
2022/11/03 03:46:21;;;;;;;16.40;8.50;;;;;;;1.49;100.00;100229.51;100658;1331;24257;-32
2022/11/03 03:48:47;;;;;;;23.70;9.40;;;;;;;1.46;100.00;100229.92;100704;1336;22714;-34
2022/11/03 03:51:13;;;;;;;21.40;8.50;;;;;;;1.40;100.00;100226.86;100712;1340;23216;-32
2022/11/03 03:53:38;;;;;;;18.80;9.50;;;;;;;1.35;100.00;100219.83;100622;1339;23104;-33
2022/11/03 03:56:04;;;;;;;19.30;9.60;;;;;;;1.31;100.00;100217.67;100729;1341;23235;-35
2022/11/03 03:58:30;;;;;;;28.30;11.30;;;;;;;1.32;100.00;100218.64;100426;1342;24418;-35
2022/11/03 04:00:55;;;;;;;18.30;10.30;;;;;;;1.31;100.00;100226.13;100787;1341;22746;-32
2022/11/03 04:03:22;;;;;;;21.20;9.50;;;;;;;1.29;100.00;100227.55;100737;1340;22737;-31
2022/11/03 04:05:48;;;;;;;21.40;7.60;;;;;;;1.26;100.00;100230.75;100548;1340;23259;-37
2022/11/03 04:08:14;;;;;;;10.30;7.10;;;;;;;1.21;100.00;100229.77;100684;1334;23258;-36
2022/11/03 04:22:15;;;;;;;13.00;8.40;;;;;;;1.14;100.00;100227.78;100700;1341;22950;-33
2022/11/03 04:23:40;;;;;;;16.10;7.70;;;;;;;0.93;100.00;100237.14;100649;1341;22487;-33
2022/11/03 04:26:10;;;;;;;26.10;7.80;;;;;;;0.87;100.00;100235.60;100667;1338;22850;-38
2022/11/03 04:28:36;;;;;;;24.60;10.90;;;;;;;0.84;100.00;100227.58;100698;1340;24372;-33
2022/11/03 04:31:01;;;;;;;28.60;12.80;;;;;;;0.85;100.00;100229.63;100570;1341;22737;-36
2022/11/03 04:33:27;;;;;;;28.20;11.70;;;;;;;0.89;100.00;100229.13;100724;1342;22736;-36
2022/11/03 04:35:54;;;;;;;33.20;15.30;;;;;;;0.89;100.00;100226.30;100720;1333;24292;-36
2022/11/03 04:38:22;;;;;;;24.30;11.90;;;;;;;0.85;100.00;100228.35;100701;1340;24758;-36
2022/11/03 04:40:51;;;;;;;23.60;9.80;;;;;;;0.81;100.00;100223.07;100711;1340;24299;-37
2022/11/03 04:43:17;;;;;;;20.10;9.60;;;;;;;0.79;100.00;100220.05;100736;1341;23066;-36
2022/11/03 04:45:44;;;;;;;18.90;10.80;;;;;;;0.75;100.00;100220.29;100854;1341;23090;-34
2022/11/03 04:48:15;;;;;;;17.30;9.50;;;;;;;0.75;100.00;100220.30;100728;1341;24383;-33
2022/11/03 04:50:41;;;;;;;16.90;9.70;;;;;;;0.75;100.00;100221.39;100626;1341;24282;-36
2022/11/03 04:53:11;;;;;;;14.40;7.90;;;;;;;0.73;100.00;100217.13;100770;1341;22751;-36
2022/11/03 04:55:38;;;;;;;8.40;6.30;;;;;;;0.70;100.00;100221.38;100733;1338;24259;-32
2022/11/03 04:58:28;;;;;;;13.70;6.10;;;;;;;0.71;100.00;100223.77;100797;1333;22800;-36
2022/11/03 05:00:56;;;;;;;15.70;8.90;;;;;;;0.69;100.00;100223.73;100589;1340;22798;-35
2022/11/03 05:03:25;;;;;;;24.60;11.10;;;;;;;0.61;100.00;100218.20;100737;1341;22631;-33
2022/11/03 05:05:50;;;;;;;19.90;9.90;;;;;;;0.56;100.00;100220.33;100752;1329;24300;-35
2022/11/03 05:08:17;;;;;;;15.00;7.40;;;;;;;0.50;100.00;100217.19;100750;1331;24369;-35
2022/11/03 05:10:43;;;;;;;21.70;9.40;;;;;;;0.44;100.00;100206.50;100714;1341;24411;-32
2022/11/03 05:13:15;;;;;;;24.20;8.90;;;;;;;0.42;100.00;100207.23;100679;1341;24474;-36
2022/11/03 05:15:42;;;;;;;15.10;10.20;;;;;;;0.41;100.00;100204.96;100764;1340;23354;-37
2022/11/03 05:18:16;;;;;;;29.00;10.50;;;;;;;0.43;100.00;100204.70;100736;1333;25589;-31
2022/11/03 05:20:46;;;;;;;18.60;9.50;;;;;;;0.39;100.00;100198.44;100725;1342;22625;-37
2022/11/03 05:23:12;;;;;;;19.80;8.90;;;;;;;0.38;100.00;100200.46;100624;1333;23169;-31
2022/11/03 05:25:40;;;;;;;13.60;8.90;;;;;;;0.36;100.00;100198.84;100694;1325;22921;-37
2022/11/03 05:28:13;;;;;;;27.60;11.00;;;;;;;0.32;100.00;100196.70;100644;1333;23107;-31
2022/11/03 05:30:38;;;;;;;19.50;8.60;;;;;;;0.28;100.00;100196.23;100736;1341;24299;-35
2022/11/03 05:33:14;;;;;;;21.50;10.80;;;;;;;0.29;100.00;100194.39;100750;1333;23113;-35
2022/11/03 05:35:40;;;;;;;23.60;10.70;;;;;;;0.28;100.00;100196.93;100676;1340;24411;-35
2022/11/03 05:38:10;;;;;;;24.00;11.10;;;;;;;0.31;100.00;100200.79;100519;1341;24420;-38
2022/11/03 05:40:35;;;;;;;37.90;13.90;;;;;;;0.35;100.00;100201.20;100582;1336;22517;-34
2022/11/03 05:43:01;;;;;;;22.20;10.60;;;;;;;0.36;100.00;100207.42;100740;1341;24371;-34
2022/11/03 05:45:30;;;;;;;30.20;13.60;;;;;;;0.39;100.00;100209.17;100686;1333;24488;-34
2022/11/03 05:47:56;;;;;;;14.90;7.30;;;;;;;0.43;100.00;100214.72;100593;1333;23240;-32
2022/11/03 05:50:24;;;;;;;27.20;12.80;;;;;;;0.47;100.00;100221.82;100698;1340;23205;-32
2022/11/03 05:52:51;;;;;;;26.00;12.20;;;;;;;0.51;100.00;100222.25;100714;1341;24497;-33
2022/11/03 05:55:23;;;;;;;25.90;12.60;;;;;;;0.55;100.00;100221.05;100792;1340;22762;-32
2022/11/03 05:57:49;;;;;;;28.50;14.90;;;;;;;0.59;100.00;100224.27;100773;1338;24522;-32
2022/11/03 06:00:24;;;;;;;24.50;12.80;;;;;;;0.65;100.00;100223.32;100679;1341;22751;-35
2022/11/03 06:02:50;;;;;;;32.50;12.80;;;;;;;0.73;100.00;100224.50;100613;1341;22749;-34
2022/11/03 06:05:19;;;;;;;28.90;14.20;;;;;;;0.80;100.00;100222.24;100670;1340;22761;-36
2022/11/03 06:07:44;;;;;;;25.70;12.60;;;;;;;0.88;100.00;100225.82;100749;1325;22747;-35
2022/11/03 06:10:17;;;;;;;29.80;13.80;;;;;;;0.98;100.00;100226.73;100689;1341;22727;-36
2022/11/03 06:12:42;;;;;;;21.70;10.10;;;;;;;1.06;100.00;100234.95;100728;1340;22509;-36
2022/11/03 06:15:09;;;;;;;17.20;9.30;;;;;;;1.10;100.00;100234.44;100717;1334;22502;-34
2022/11/03 06:17:35;;;;;;;24.90;10.70;;;;;;;1.17;100.00;100235.67;100603;1341;22517;-36
2022/11/03 06:20:00;;;;;;;18.80;8.00;;;;;;;1.28;100.00;100237.86;100692;1340;22748;-33
2022/11/03 06:22:28;;;;;;;17.00;9.80;;;;;;;1.39;100.00;100236.79;100666;1340;22759;-32
2022/11/03 06:24:55;;;;;;;21.40;10.10;;;;;;;1.49;100.00;100237.64;100632;1333;23098;-31
2022/11/03 06:27:22;;;;;;;22.90;10.30;;;;;;;1.56;100.00;100241.48;100687;1339;24803;-33
2022/11/03 06:29:51;;;;;;;36.80;12.30;;;;;;;1.59;100.00;100236.52;100709;1340;23090;-34
2022/11/03 06:32:17;;;;;;;26.60;11.80;;;;;;;1.60;100.00;100239.42;100735;1336;22748;-32
2022/11/03 06:34:45;;;;;;;19.60;9.40;;;;;;;1.61;100.00;100234.58;100723;1324;22512;-33
2022/11/03 06:37:18;;;;;;;27.70;11.70;;;;;;;1.63;100.00;100229.83;100722;1340;24041;-35
2022/11/03 06:39:43;;;;;;;30.90;12.50;;;;;;;1.66;100.00;100231.92;100712;1341;24322;-35
2022/11/03 06:42:11;;;;;;;21.10;13.50;;;;;;;1.68;100.00;100226.11;100722;1339;23230;-32
2022/11/03 06:44:43;;;;;;;28.90;13.60;;;;;;;1.72;100.00;100223.64;100688;1340;23097;-33
2022/11/03 06:47:14;;;;;;;21.60;10.80;;;;;;;1.76;100.00;100221.76;100720;1341;24282;-32
2022/11/03 06:49:39;;;;;;;32.80;14.40;;;;;;;1.81;100.00;100223.73;100761;1331;22907;-36
2022/11/03 06:52:21;;;;;;;29.70;17.60;;;;;;;1.85;100.00;100221.27;100630;1340;24485;-33
2022/11/03 06:54:48;;;;;;;29.50;16.30;;;;;;;1.91;100.00;100218.53;100624;1341;22762;-35
2022/11/03 06:57:14;;;;;;;28.70;13.00;;;;;;;1.98;100.00;100218.70;100669;1340;22514;-35
2022/11/03 06:59:39;;;;;;;27.10;11.30;;;;;;;2.03;100.00;100217.33;100723;1332;22515;-35
2022/11/03 07:02:19;;;;;;;32.60;15.30;;;;;;;2.11;100.00;100216.22;100659;1340;22764;-35
2022/11/03 07:04:45;;;;;;;18.30;11.40;;;;;;;2.21;100.00;100216.30;100746;1333;25846;-33
2022/11/03 07:07:11;;;;;;;29.90;15.70;;;;;;;2.31;100.00;100215.30;100728;1340;22893;-32
2022/11/03 07:09:38;;;;;;;24.10;11.40;;;;;;;2.51;100.00;100224.67;100694;1340;23182;-35
2022/11/03 07:12:05;;;;;;;26.10;14.00;;;;;;;2.78;100.00;100232.69;100703;1340;24387;-33
2022/11/03 07:14:31;;;;;;;54.80;17.90;;;;;;;3.06;100.00;100232.86;100593;1341;24451;-33
2022/11/03 07:17:00;;;;;;;44.10;15.70;;;;;;;3.27;100.00;100232.65;100683;1341;23230;-33
2022/11/03 07:19:27;;;;;;;35.70;16.50;;;;;;;3.47;100.00;100232.57;100780;1340;23275;-33
2022/11/03 07:21:55;;;;;;;24.40;12.70;;;;;;;3.67;100.00;100224.10;100696;1341;23067;-35
2022/11/03 07:24:25;;;;;;;29.50;12.10;;;;;;;3.95;100.00;100225.28;100750;1340;24450;-35
2022/11/03 07:26:55;;;;;;;14.50;10.90;;;;;;;4.27;100.00;100223.52;100689;1341;24326;-32
2022/11/03 07:29:21;;;;;;;15.90;10.30;;;;;;;4.59;100.00;100216.04;100702;1340;23229;-36
2022/11/03 07:31:48;;;;;;;23.50;7.80;;;;;;;4.90;100.00;100206.83;100710;1340;24426;-33
2022/11/03 07:34:19;;;;;;;13.30;7.50;;;;;;;5.21;100.00;100207.69;100776;1331;24383;-37
2022/11/03 07:36:44;;;;;;;21.00;7.80;;;;;;;5.51;100.00;100197.45;100583;1341;24428;-34
2022/11/03 07:39:14;;;;;;;10.80;7.50;;;;;;;5.81;100.00;100195.16;100706;1341;23166;-33
2022/11/03 07:41:39;;;;;;;13.20;5.20;;;;;;;6.09;100.00;100182.36;100469;1342;22619;-33
2022/11/03 07:44:07;;;;;;;13.60;6.00;;;;;;;6.38;100.00;100173.31;100772;1330;22524;-36
2022/11/03 07:46:33;;;;;;;9.40;5.10;;;;;;;6.65;100.00;100163.14;100756;1340;22935;-34
2022/11/03 07:49:00;;;;;;;15.20;5.40;;;;;;;7.01;100.00;100143.84;100641;1339;22852;-34
2022/11/03 07:51:28;;;;;;;23.70;8.70;;;;;;;7.30;100.00;100119.82;100595;1329;24374;-37
2022/11/03 07:53:57;;;;;;;24.70;6.90;;;;;;;7.57;100.00;100102.16;100504;1341;22770;-35
2022/11/03 07:56:31;;;;;;;9.50;4.80;;;;;;;7.86;100.00;100099.08;100738;1333;23292;-34
2022/11/03 07:58:59;;;;;;;12.30;5.00;;;;;;;8.06;100.00;100091.67;100711;1324;25331;-34
2022/11/03 08:01:29;;;;;;;9.80;5.90;;;;;;;8.12;100.00;100092.83;100741;1341;24048;-37
2022/11/03 08:04:00;;;;;;;8.80;4.10;;;;;;;8.01;100.00;100055.98;100750;1341;23367;-37
2022/11/03 08:06:26;;;;;;;9.80;4.20;;;;;;;7.94;100.00;100059.55;100776;1340;23326;-32
2022/11/03 08:08:52;;;;;;;9.70;4.90;;;;;;;8.02;100.00;100049.66;100738;1340;22627;-35
2022/11/03 08:11:17;;;;;;;6.40;3.20;;;;;;;8.28;100.00;100052.14;100760;1339;22494;-36
2022/11/03 08:13:43;;;;;;;10.30;4.00;;;;;;;8.56;100.00;100060.39;100694;1339;24898;-37
2022/11/03 08:16:09;;;;;;;5.70;3.00;;;;;;;8.86;100.00;100041.25;100722;1339;24869;-36
2022/11/03 08:18:35;;;;;;;6.30;4.40;;;;;;;9.16;100.00;100038.95;100680;1336;23121;-37
2022/11/03 08:21:01;;;;;;;6.10;4.00;;;;;;;9.44;100.00;100022.23;100637;1340;24622;-34
2022/11/03 08:23:26;;;;;;;3.70;2.80;;;;;;;9.66;100.00;100009.20;100708;1331;22632;-37
2022/11/03 08:25:52;;;;;;;8.20;4.00;;;;;;;9.84;100.00;100005.69;100677;1339;24343;-37
2022/11/03 08:28:18;;;;;;;7.50;4.70;;;;;;;10.04;100.00;100001.25;100578;1341;23048;-37
2022/11/03 08:30:43;;;;;;;6.70;3.70;;;;;;;10.19;100.00;99996.76;100703;1340;22924;-35
2022/11/03 08:33:09;;;;;;;5.60;4.30;;;;;;;10.42;100.00;99993.44;100580;1340;23226;-36
2022/11/03 08:35:34;;;;;;;20.90;3.80;;;;;;;10.44;100.00;99990.27;100693;1338;22750;-34
2022/11/03 08:38:00;;;;;;;10.50;4.10;;;;;;;10.53;100.00;99991.58;100756;1324;22490;-35
2022/11/03 08:40:25;;;;;;;12.30;4.80;;;;;;;10.62;100.00;99980.31;100715;1341;24383;-36
2022/11/03 08:42:51;;;;;;;9.10;5.10;;;;;;;10.73;100.00;99978.25;100655;1333;24475;-34
2022/11/03 08:45:17;;;;;;;19.30;4.30;;;;;;;10.86;100.00;99978.83;100693;1333;23144;-33
2022/11/03 08:47:42;;;;;;;10.10;5.00;;;;;;;10.95;100.00;99978.33;100640;1336;22758;-36
2022/11/03 08:50:08;;;;;;;6.00;2.80;;;;;;;11.22;100.00;99972.54;100549;1334;24771;-34
2022/11/03 08:52:34;;;;;;;17.60;4.00;;;;;;;11.40;99.59;99970.71;100766;1341;25752;-36
2022/11/03 08:55:00;;;;;;;9.20;4.00;;;;;;;11.71;100.00;99967.14;100708;1333;22849;-34
2022/11/03 08:57:26;;;;;;;6.00;4.10;;;;;;;11.98;99.68;99958.17;100734;1334;24386;-37
2022/11/03 08:59:53;;;;;;;6.50;3.40;;;;;;;12.12;96.76;99954.29;100674;1341;24478;-35
2022/11/03 09:02:19;;;;;;;5.20;2.50;;;;;;;12.23;92.71;99945.86;100691;1340;22741;-35
2022/11/03 09:04:47;;;;;;;5.80;4.00;;;;;;;12.43;92.49;99943.83;100730;1323;22735;-37
2022/11/03 09:07:13;;;;;;;11.80;4.20;;;;;;;12.68;93.61;99938.04;100640;1340;23093;-38
2022/11/03 09:09:38;;;;;;;9.00;3.90;;;;;;;12.90;92.86;99930.39;100651;1332;22898;-35
2022/11/03 09:12:04;;;;;;;12.10;3.90;;;;;;;13.12;93.21;99923.46;100646;1324;22758;-35
2022/11/03 09:14:30;;;;;;;6.50;3.00;;;;;;;13.26;91.57;99918.89;100566;1325;22750;-35
2022/11/03 09:16:55;;;;;;;7.50;4.20;;;;;;;13.39;91.66;99916.17;100662;1333;23109;-35
2022/11/03 09:19:21;;;;;;;7.20;4.20;;;;;;;13.56;91.61;99914.14;100654;1339;22603;-35
2022/11/03 09:21:46;;;;;;;6.50;3.60;;;;;;;13.73;88.27;99908.83;100759;1339;23528;-35
2022/11/03 09:24:12;;;;;;;8.50;3.40;;;;;;;13.80;87.15;99910.77;100657;1332;22765;-38
2022/11/03 09:26:38;;;;;;;10.20;3.60;;;;;;;13.84;85.03;99909.10;100735;1340;22522;-38
2022/11/03 09:29:03;;;;;;;6.00;4.20;;;;;;;13.97;83.75;99906.33;100694;1339;22715;-38
2022/11/03 09:31:29;;;;;;;11.60;5.00;;;;;;;14.20;83.16;99900.16;100735;1333;23445;-37
2022/11/03 09:33:54;;;;;;;7.30;3.50;;;;;;;14.27;82.16;99898.41;100650;1339;23218;-36
2022/11/03 09:36:20;;;;;;;14.20;5.00;;;;;;;14.37;82.37;99896.58;100680;1341;22926;-37
2022/11/03 09:38:45;;;;;;;9.40;2.80;;;;;;;14.31;76.93;99892.30;100570;1341;24305;-38
2022/11/03 09:41:16;;;;;;;9.90;2.20;;;;;;;14.60;78.18;99892.79;100711;1340;25603;-37
2022/11/03 09:43:43;;;;;;;9.80;3.10;;;;;;;14.86;77.00;99887.08;100758;1333;22744;-33
2022/11/03 09:46:10;;;;;;;10.40;2.80;;;;;;;14.94;77.49;99882.39;100618;1333;22747;-36
2022/11/03 09:48:35;;;;;;;7.70;2.70;;;;;;;15.05;75.28;99884.33;100701;1340;23030;-36
2022/11/03 09:51:01;;;;;;;9.50;3.20;;;;;;;15.00;71.80;99877.92;100686;1338;22892;-36
2022/11/03 09:53:26;;;;;;;9.00;2.20;;;;;;;15.01;71.03;99874.64;100688;1334;23090;-37
2022/11/03 09:55:52;;;;;;;7.50;1.50;;;;;;;15.14;73.04;99869.92;100655;1325;23333;-34
2022/11/03 09:58:17;;;;;;;5.20;2.00;;;;;;;15.08;69.23;99868.06;100678;1331;26752;-35
2022/11/03 10:00:43;;;;;;;3.50;1.40;;;;;;;15.09;70.04;99862.41;100715;1338;23072;-35
2022/11/03 10:03:10;;;;;;;4.00;2.30;;;;;;;15.09;68.68;99860.45;100698;1341;24358;-37
2022/11/03 10:05:37;;;;;;;4.60;2.40;;;;;;;15.11;68.83;99857.45;100729;1333;24387;-37
2022/11/03 10:08:05;;;;;;;6.30;3.20;;;;;;;15.25;69.59;99854.30;100695;1340;22746;-34
2022/11/03 10:10:31;;;;;;;16.80;3.00;;;;;;;15.50;69.34;99849.88;100779;1341;23089;-34
2022/11/03 10:12:57;;;;;;;6.50;1.70;;;;;;;15.77;67.94;99846.67;100721;1333;23294;-37
2022/11/03 10:15:22;;;;;;;9.70;1.80;;;;;;;15.69;64.19;99844.67;100652;1341;23022;-34
2022/11/03 10:17:49;;;;;;;3.50;1.10;;;;;;;15.80;63.73;99834.95;100666;1339;23117;-34
2022/11/03 10:20:18;;;;;;;3.90;1.20;;;;;;;15.89;62.86;99826.46;100719;1340;22768;-37
2022/11/03 10:22:44;;;;;;;2.10;1.40;;;;;;;16.05;62.28;99818.33;100687;1333;22764;-37
2022/11/03 10:25:17;;;;;;;7.70;2.10;;;;;;;16.18;61.30;99817.58;100710;1333;25685;-34
2022/11/03 10:27:42;;;;;;;7.30;1.80;;;;;;;16.02;60.00;99807.02;100777;1334;22457;-34
2022/11/03 10:30:10;;;;;;;4.20;1.20;;;;;;;15.98;59.69;99804.17;100716;1341;24781;-34
2022/11/03 10:32:35;;;;;;;3.00;1.40;;;;;;;15.99;59.13;99801.12;100629;1339;22514;-34
2022/11/03 10:35:02;;;;;;;3.60;0.90;;;;;;;16.03;58.53;99802.88;100612;1341;23362;-37
2022/11/03 10:37:28;;;;;;;3.40;1.70;;;;;;;16.21;57.88;99802.45;100724;1330;22926;-35
2022/11/03 10:39:55;;;;;;;6.10;1.60;;;;;;;16.42;56.40;99801.96;100715;1340;23244;-35
2022/11/03 10:42:23;;;;;;;2.60;1.20;;;;;;;16.66;56.37;99797.35;100663;1333;24387;-33
2022/11/03 10:44:51;;;;;;;4.30;1.00;;;;;;;16.91;56.27;99798.21;100728;1333;24377;-34
2022/11/03 10:47:22;;;;;;;5.30;1.00;;;;;;;17.18;53.46;99791.46;100705;1337;22763;-37
2022/11/03 10:49:49;;;;;;;;;;;;;;;17.33;52.81;99785.52;100604;1341;22480;-37
2022/11/03 10:52:19;;;;;;;2.40;0.90;;;;;;;17.32;50.72;99777.07;100743;1333;23106;-37
2022/11/03 10:54:46;;;;;;;7.40;1.50;;;;;;;17.30;50.37;99770.73;100717;1341;24305;-34
2022/11/03 10:57:12;;;;;;;5.70;2.40;;;;;;;17.26;50.34;99769.00;100587;1319;24344;-34
2022/11/03 10:59:38;;;;;;;10.70;1.40;;;;;;;17.23;50.91;99766.48;100695;1333;22879;-35
2022/11/03 11:02:11;;;;;;;6.50;1.60;;;;;;;17.14;51.42;99761.58;100732;1340;23081;-35
2022/11/03 11:04:36;;;;;;;5.50;1.60;;;;;;;17.06;51.20;99762.92;100709;1341;24359;-35
2022/11/03 11:07:15;;;;;;;5.00;2.40;;;;;;;16.94;51.18;99756.96;100695;1340;22774;-35
2022/11/03 11:09:41;;;;;;;6.60;2.60;;;;;;;16.62;51.10;99747.73;100671;1333;24450;-38
2022/11/03 11:12:14;;;;;;;2.90;1.40;;;;;;;16.34;51.14;99742.73;100656;1336;23003;-38
2022/11/03 11:14:51;;;;;;;2.50;1.20;;;;;;;16.14;52.66;99736.61;100663;1340;22746;-38
2022/11/03 11:17:23;;;;;;;4.10;1.60;;;;;;;16.00;52.97;99728.70;100661;1341;24300;-35
2022/11/03 11:19:56;;;;;;;4.70;1.80;;;;;;;16.02;53.48;99724.04;100744;1340;22746;-35
2022/11/03 11:22:22;;;;;;;8.00;2.70;;;;;;;15.95;52.89;99720.80;100668;1339;22547;-37
2022/11/03 11:24:48;;;;;;;1.20;0.70;;;;;;;15.71;52.68;99720.65;100744;1340;24859;-34
2022/11/03 11:27:20;;;;;;;4.30;1.20;;;;;;;15.51;52.56;99715.05;100730;1339;22746;-37
2022/11/03 11:29:46;;;;;;;3.00;1.40;;;;;;;15.48;53.00;99708.23;100710;1340;22511;-33
2022/11/03 11:32:35;;;;;;;4.10;1.30;;;;;;;15.38;52.95;99702.46;100438;1341;22636;-37